sensor_id;sensor_type;location;lat;lon;timestamp;P1;durP1;ratioP1;P2;durP2;ratioP2
11127;SDS011;5618;51.028;5.234;2022-08-14T00:00:06;3.22;;;2.47;;
11127;SDS011;5618;51.028;5.234;2022-08-14T00:02:34;2.85;;;2.65;;
11127;SDS011;5618;51.028;5.234;2022-08-14T00:05:00;3.47;;;2.60;;
11127;SDS011;5618;51.028;5.234;2022-08-14T00:07:26;2.40;;;2.20;;
11127;SDS011;5618;51.028;5.234;2022-08-14T00:09:52;2.80;;;2.60;;
11127;SDS011;5618;51.028;5.234;2022-08-14T00:12:18;2.75;;;2.55;;
11127;SDS011;5618;51.028;5.234;2022-08-14T00:14:44;3.05;;;2.35;;
11127;SDS011;5618;51.028;5.234;2022-08-14T00:17:09;4.03;;;2.15;;
11127;SDS011;5618;51.028;5.234;2022-08-14T00:19:35;2.63;;;2.42;;
11127;SDS011;5618;51.028;5.234;2022-08-14T00:22:01;3.83;;;3.03;;
11127;SDS011;5618;51.028;5.234;2022-08-14T00:24:27;2.80;;;2.55;;
11127;SDS011;5618;51.028;5.234;2022-08-14T00:26:53;2.63;;;2.42;;
11127;SDS011;5618;51.028;5.234;2022-08-14T00:29:18;2.33;;;2.05;;
11127;SDS011;5618;51.028;5.234;2022-08-14T00:31:44;2.75;;;2.38;;
11127;SDS011;5618;51.028;5.234;2022-08-14T00:34:10;3.50;;;2.53;;
11127;SDS011;5618;51.028;5.234;2022-08-14T00:36:35;2.53;;;2.33;;
11127;SDS011;5618;51.028;5.234;2022-08-14T00:39:01;3.53;;;2.70;;
11127;SDS011;5618;51.028;5.234;2022-08-14T00:41:31;4.18;;;2.50;;
11127;SDS011;5618;51.028;5.234;2022-08-14T00:43:57;3.40;;;2.55;;
11127;SDS011;5618;51.028;5.234;2022-08-14T00:46:24;2.63;;;2.42;;
11127;SDS011;5618;51.028;5.234;2022-08-14T00:48:49;2.85;;;2.60;;
11127;SDS011;5618;51.028;5.234;2022-08-14T00:51:15;3.08;;;2.75;;
11127;SDS011;5618;51.028;5.234;2022-08-14T00:53:41;2.40;;;2.20;;
11127;SDS011;5618;51.028;5.234;2022-08-14T00:56:07;3.10;;;2.80;;
11127;SDS011;5618;51.028;5.234;2022-08-14T00:58:33;2.65;;;2.45;;
11127;SDS011;5618;51.028;5.234;2022-08-14T01:01:06;3.08;;;2.88;;
11127;SDS011;5618;51.028;5.234;2022-08-14T01:03:35;2.47;;;2.28;;
11127;SDS011;5618;51.028;5.234;2022-08-14T01:06:03;3.67;;;3.13;;
11127;SDS011;5618;51.028;5.234;2022-08-14T01:08:34;2.80;;;2.60;;
11127;SDS011;5618;51.028;5.234;2022-08-14T01:11:02;3.33;;;2.83;;
11127;SDS011;5618;51.028;5.234;2022-08-14T01:13:30;3.17;;;2.88;;
11127;SDS011;5618;51.028;5.234;2022-08-14T01:16:00;2.90;;;2.60;;
11127;SDS011;5618;51.028;5.234;2022-08-14T01:18:29;2.70;;;2.50;;
11127;SDS011;5618;51.028;5.234;2022-08-14T01:21:15;6.60;;;2.60;;
11127;SDS011;5618;51.028;5.234;2022-08-14T01:23:47;3.25;;;2.40;;
11127;SDS011;5618;51.028;5.234;2022-08-14T01:26:15;3.03;;;2.83;;
11127;SDS011;5618;51.028;5.234;2022-08-14T01:28:45;4.18;;;2.50;;
11127;SDS011;5618;51.028;5.234;2022-08-14T01:31:14;2.80;;;2.60;;
11127;SDS011;5618;51.028;5.234;2022-08-14T01:33:42;3.60;;;2.45;;
11127;SDS011;5618;51.028;5.234;2022-08-14T01:36:11;7.95;;;3.03;;
11127;SDS011;5618;51.028;5.234;2022-08-14T01:38:38;2.83;;;2.63;;
11127;SDS011;5618;51.028;5.234;2022-08-14T01:41:08;3.05;;;2.40;;
11127;SDS011;5618;51.028;5.234;2022-08-14T01:43:42;2.45;;;2.28;;
11127;SDS011;5618;51.028;5.234;2022-08-14T01:46:09;4.70;;;2.53;;
11127;SDS011;5618;51.028;5.234;2022-08-14T01:48:36;2.70;;;2.50;;
11127;SDS011;5618;51.028;5.234;2022-08-14T01:51:03;2.42;;;2.25;;
11127;SDS011;5618;51.028;5.234;2022-08-14T01:53:30;5.78;;;2.42;;
11127;SDS011;5618;51.028;5.234;2022-08-14T01:55:56;2.55;;;2.35;;
11127;SDS011;5618;51.028;5.234;2022-08-14T01:58:26;3.35;;;2.40;;
11127;SDS011;5618;51.028;5.234;2022-08-14T02:00:53;2.60;;;2.40;;
11127;SDS011;5618;51.028;5.234;2022-08-14T02:03:20;3.42;;;3.13;;
11127;SDS011;5618;51.028;5.234;2022-08-14T02:05:47;2.85;;;2.10;;
11127;SDS011;5618;51.028;5.234;2022-08-14T02:08:13;6.80;;;2.78;;
11127;SDS011;5618;51.028;5.234;2022-08-14T02:10:40;3.25;;;2.55;;
11127;SDS011;5618;51.028;5.234;2022-08-14T02:13:06;2.55;;;2.35;;
11127;SDS011;5618;51.028;5.234;2022-08-14T02:15:32;4.38;;;2.42;;
11127;SDS011;5618;51.028;5.234;2022-08-14T02:17:58;3.05;;;2.78;;
11127;SDS011;5618;51.028;5.234;2022-08-14T02:20:31;2.72;;;2.53;;
11127;SDS011;5618;51.028;5.234;2022-08-14T02:23:01;2.65;;;2.45;;
11127;SDS011;5618;51.028;5.234;2022-08-14T02:25:26;3.92;;;2.92;;
11127;SDS011;5618;51.028;5.234;2022-08-14T02:27:54;3.33;;;2.70;;
11127;SDS011;5618;51.028;5.234;2022-08-14T02:30:22;3.55;;;3.05;;
11127;SDS011;5618;51.028;5.234;2022-08-14T02:32:49;2.70;;;2.47;;
11127;SDS011;5618;51.028;5.234;2022-08-14T02:35:18;3.20;;;2.35;;
11127;SDS011;5618;51.028;5.234;2022-08-14T02:37:47;2.55;;;2.33;;
11127;SDS011;5618;51.028;5.234;2022-08-14T02:40:13;2.55;;;2.35;;
11127;SDS011;5618;51.028;5.234;2022-08-14T02:42:39;3.13;;;2.78;;
11127;SDS011;5618;51.028;5.234;2022-08-14T02:45:05;3.30;;;2.58;;
11127;SDS011;5618;51.028;5.234;2022-08-14T02:47:31;2.55;;;2.35;;
11127;SDS011;5618;51.028;5.234;2022-08-14T02:49:58;3.00;;;2.80;;
11127;SDS011;5618;51.028;5.234;2022-08-14T02:52:24;4.57;;;2.80;;
11127;SDS011;5618;51.028;5.234;2022-08-14T02:54:51;3.88;;;2.80;;
11127;SDS011;5618;51.028;5.234;2022-08-14T02:57:17;2.75;;;2.50;;
11127;SDS011;5618;51.028;5.234;2022-08-14T02:59:46;2.53;;;2.33;;
11127;SDS011;5618;51.028;5.234;2022-08-14T03:02:14;2.85;;;2.65;;
11127;SDS011;5618;51.028;5.234;2022-08-14T03:04:40;3.15;;;2.80;;
11127;SDS011;5618;51.028;5.234;2022-08-14T03:07:06;2.90;;;2.67;;
11127;SDS011;5618;51.028;5.234;2022-08-14T03:09:34;4.43;;;2.65;;
11127;SDS011;5618;51.028;5.234;2022-08-14T03:12:03;2.80;;;2.60;;
11127;SDS011;5618;51.028;5.234;2022-08-14T03:14:30;3.55;;;2.80;;
11127;SDS011;5618;51.028;5.234;2022-08-14T03:16:59;2.65;;;2.45;;
11127;SDS011;5618;51.028;5.234;2022-08-14T03:19:25;5.07;;;2.78;;
11127;SDS011;5618;51.028;5.234;2022-08-14T03:21:51;3.13;;;2.92;;
11127;SDS011;5618;51.028;5.234;2022-08-14T03:24:17;3.03;;;2.83;;
11127;SDS011;5618;51.028;5.234;2022-08-14T03:26:46;2.85;;;2.63;;
11127;SDS011;5618;51.028;5.234;2022-08-14T03:29:15;3.20;;;2.90;;
11127;SDS011;5618;51.028;5.234;2022-08-14T03:31:44;2.65;;;2.45;;
11127;SDS011;5618;51.028;5.234;2022-08-14T03:34:11;3.08;;;2.75;;
11127;SDS011;5618;51.028;5.234;2022-08-14T03:36:37;2.58;;;2.38;;
11127;SDS011;5618;51.028;5.234;2022-08-14T03:39:05;4.05;;;2.65;;
11127;SDS011;5618;51.028;5.234;2022-08-14T03:41:31;2.40;;;2.20;;
11127;SDS011;5618;51.028;5.234;2022-08-14T03:43:57;3.45;;;3.15;;
11127;SDS011;5618;51.028;5.234;2022-08-14T03:46:25;3.40;;;3.10;;
11127;SDS011;5618;51.028;5.234;2022-08-14T03:48:54;3.13;;;2.80;;
11127;SDS011;5618;51.028;5.234;2022-08-14T03:51:20;2.70;;;2.50;;
11127;SDS011;5618;51.028;5.234;2022-08-14T03:53:47;5.95;;;2.90;;
11127;SDS011;5618;51.028;5.234;2022-08-14T03:56:14;3.63;;;2.85;;
11127;SDS011;5618;51.028;5.234;2022-08-14T03:58:45;3.15;;;2.95;;
11127;SDS011;5618;51.028;5.234;2022-08-14T04:01:15;4.40;;;3.25;;
11127;SDS011;5618;51.028;5.234;2022-08-14T04:03:43;5.78;;;2.53;;
11127;SDS011;5618;51.028;5.234;2022-08-14T04:06:10;2.75;;;2.47;;
11127;SDS011;5618;51.028;5.234;2022-08-14T04:08:37;2.80;;;2.60;;
11127;SDS011;5618;51.028;5.234;2022-08-14T04:11:04;4.32;;;3.10;;
11127;SDS011;5618;51.028;5.234;2022-08-14T04:13:31;3.70;;;2.70;;
11127;SDS011;5618;51.028;5.234;2022-08-14T04:15:59;2.83;;;2.63;;
11127;SDS011;5618;51.028;5.234;2022-08-14T04:18:29;3.03;;;2.80;;
11127;SDS011;5618;51.028;5.234;2022-08-14T04:20:56;6.07;;;3.25;;
11127;SDS011;5618;51.028;5.234;2022-08-14T04:23:22;3.15;;;2.85;;
11127;SDS011;5618;51.028;5.234;2022-08-14T04:25:49;3.72;;;2.63;;
11127;SDS011;5618;51.028;5.234;2022-08-14T04:28:18;2.72;;;2.53;;
11127;SDS011;5618;51.028;5.234;2022-08-14T04:30:44;2.63;;;2.42;;
11127;SDS011;5618;51.028;5.234;2022-08-14T04:33:10;2.83;;;2.50;;
11127;SDS011;5618;51.028;5.234;2022-08-14T04:35:35;4.07;;;2.80;;
11127;SDS011;5618;51.028;5.234;2022-08-14T04:38:05;3.20;;;2.90;;
11127;SDS011;5618;51.028;5.234;2022-08-14T04:40:50;2.83;;;2.58;;
11127;SDS011;5618;51.028;5.234;2022-08-14T04:43:35;3.05;;;2.78;;
11127;SDS011;5618;51.028;5.234;2022-08-14T04:46:06;3.33;;;2.50;;
11127;SDS011;5618;51.028;5.234;2022-08-14T04:48:38;4.03;;;2.83;;
11127;SDS011;5618;51.028;5.234;2022-08-14T04:51:05;3.30;;;3.00;;
11127;SDS011;5618;51.028;5.234;2022-08-14T04:53:36;2.90;;;2.63;;
11127;SDS011;5618;51.028;5.234;2022-08-14T04:56:08;2.55;;;2.42;;
11127;SDS011;5618;51.028;5.234;2022-08-14T04:58:36;5.63;;;3.30;;
11127;SDS011;5618;51.028;5.234;2022-08-14T05:01:03;3.38;;;3.08;;
11127;SDS011;5618;51.028;5.234;2022-08-14T05:03:32;2.95;;;2.75;;
11127;SDS011;5618;51.028;5.234;2022-08-14T05:06:00;3.85;;;3.53;;
11127;SDS011;5618;51.028;5.234;2022-08-14T05:08:28;3.83;;;3.20;;
11127;SDS011;5618;51.028;5.234;2022-08-14T05:10:55;3.38;;;3.17;;
11127;SDS011;5618;51.028;5.234;2022-08-14T05:13:24;4.60;;;2.80;;
11127;SDS011;5618;51.028;5.234;2022-08-14T05:15:52;3.05;;;2.75;;
11127;SDS011;5618;51.028;5.234;2022-08-14T05:18:23;3.17;;;2.90;;
11127;SDS011;5618;51.028;5.234;2022-08-14T05:20:51;3.10;;;2.85;;
11127;SDS011;5618;51.028;5.234;2022-08-14T05:23:21;3.28;;;2.97;;
11127;SDS011;5618;51.028;5.234;2022-08-14T05:25:48;3.78;;;2.78;;
11127;SDS011;5618;51.028;5.234;2022-08-14T05:28:17;3.63;;;3.03;;
11127;SDS011;5618;51.028;5.234;2022-08-14T05:30:45;4.05;;;2.80;;
11127;SDS011;5618;51.028;5.234;2022-08-14T05:33:13;3.22;;;3.00;;
11127;SDS011;5618;51.028;5.234;2022-08-14T05:35:40;4.03;;;2.72;;
11127;SDS011;5618;51.028;5.234;2022-08-14T05:38:11;2.65;;;2.45;;
11127;SDS011;5618;51.028;5.234;2022-08-14T05:40:39;3.10;;;2.80;;
11127;SDS011;5618;51.028;5.234;2022-08-14T05:43:05;2.85;;;2.63;;
11127;SDS011;5618;51.028;5.234;2022-08-14T05:45:31;5.20;;;3.10;;
11127;SDS011;5618;51.028;5.234;2022-08-14T05:48:00;2.95;;;2.75;;
11127;SDS011;5618;51.028;5.234;2022-08-14T05:50:26;3.05;;;2.85;;
11127;SDS011;5618;51.028;5.234;2022-08-14T05:52:52;3.40;;;3.10;;
11127;SDS011;5618;51.028;5.234;2022-08-14T05:55:18;3.30;;;2.53;;
11127;SDS011;5618;51.028;5.234;2022-08-14T05:57:45;6.25;;;4.43;;
11127;SDS011;5618;51.028;5.234;2022-08-14T06:00:28;4.28;;;3.00;;
11127;SDS011;5618;51.028;5.234;2022-08-14T06:02:58;2.65;;;2.45;;
11127;SDS011;5618;51.028;5.234;2022-08-14T06:05:25;2.95;;;2.75;;
11127;SDS011;5618;51.028;5.234;2022-08-14T06:07:51;2.35;;;2.15;;
11127;SDS011;5618;51.028;5.234;2022-08-14T06:10:17;3.60;;;2.75;;
11127;SDS011;5618;51.028;5.234;2022-08-14T06:12:42;3.50;;;2.40;;
11127;SDS011;5618;51.028;5.234;2022-08-14T06:15:09;4.05;;;2.65;;
11127;SDS011;5618;51.028;5.234;2022-08-14T06:17:41;3.40;;;2.90;;
11127;SDS011;5618;51.028;5.234;2022-08-14T06:20:08;2.97;;;2.78;;
11127;SDS011;5618;51.028;5.234;2022-08-14T06:22:34;3.72;;;2.90;;
11127;SDS011;5618;51.028;5.234;2022-08-14T06:24:59;2.95;;;2.67;;
11127;SDS011;5618;51.028;5.234;2022-08-14T06:27:25;2.50;;;2.30;;
11127;SDS011;5618;51.028;5.234;2022-08-14T06:29:50;3.00;;;2.70;;
11127;SDS011;5618;51.028;5.234;2022-08-14T06:32:16;3.53;;;2.88;;
11127;SDS011;5618;51.028;5.234;2022-08-14T06:34:42;3.58;;;2.90;;
11127;SDS011;5618;51.028;5.234;2022-08-14T06:37:08;2.90;;;2.70;;
11127;SDS011;5618;51.028;5.234;2022-08-14T06:39:33;2.97;;;2.78;;
11127;SDS011;5618;51.028;5.234;2022-08-14T06:41:59;2.45;;;2.25;;
11127;SDS011;5618;51.028;5.234;2022-08-14T06:44:25;2.83;;;2.63;;
11127;SDS011;5618;51.028;5.234;2022-08-14T06:46:52;3.63;;;2.80;;
11127;SDS011;5618;51.028;5.234;2022-08-14T06:49:17;3.42;;;3.13;;
11127;SDS011;5618;51.028;5.234;2022-08-14T06:51:43;3.05;;;2.78;;
11127;SDS011;5618;51.028;5.234;2022-08-14T06:54:11;4.40;;;3.13;;
11127;SDS011;5618;51.028;5.234;2022-08-14T06:56:37;3.10;;;2.90;;
11127;SDS011;5618;51.028;5.234;2022-08-14T06:59:03;5.00;;;2.97;;
11127;SDS011;5618;51.028;5.234;2022-08-14T07:01:29;2.83;;;2.63;;
11127;SDS011;5618;51.028;5.234;2022-08-14T07:04:13;2.92;;;2.72;;
11127;SDS011;5618;51.028;5.234;2022-08-14T07:06:57;4.50;;;2.53;;
11127;SDS011;5618;51.028;5.234;2022-08-14T07:09:23;4.80;;;2.80;;
11127;SDS011;5618;51.028;5.234;2022-08-14T07:11:50;3.15;;;2.95;;
11127;SDS011;5618;51.028;5.234;2022-08-14T07:14:16;2.60;;;2.40;;
11127;SDS011;5618;51.028;5.234;2022-08-14T07:16:41;4.65;;;3.50;;
11127;SDS011;5618;51.028;5.234;2022-08-14T07:19:07;3.05;;;2.67;;
11127;SDS011;5618;51.028;5.234;2022-08-14T07:21:33;3.17;;;2.80;;
11127;SDS011;5618;51.028;5.234;2022-08-14T07:24:01;4.68;;;2.97;;
11127;SDS011;5618;51.028;5.234;2022-08-14T07:26:27;3.72;;;2.63;;
11127;SDS011;5618;51.028;5.234;2022-08-14T07:28:53;2.75;;;2.50;;
11127;SDS011;5618;51.028;5.234;2022-08-14T07:31:19;2.72;;;2.47;;
11127;SDS011;5618;51.028;5.234;2022-08-14T07:33:46;2.80;;;2.58;;
11127;SDS011;5618;51.028;5.234;2022-08-14T07:36:16;3.55;;;2.65;;
11127;SDS011;5618;51.028;5.234;2022-08-14T07:38:43;3.03;;;2.65;;
11127;SDS011;5618;51.028;5.234;2022-08-14T07:41:09;5.57;;;2.63;;
11127;SDS011;5618;51.028;5.234;2022-08-14T07:43:37;2.72;;;2.53;;
11127;SDS011;5618;51.028;5.234;2022-08-14T07:46:04;3.42;;;2.70;;
11127;SDS011;5618;51.028;5.234;2022-08-14T07:48:30;2.42;;;2.33;;
11127;SDS011;5618;51.028;5.234;2022-08-14T07:50:56;2.35;;;2.15;;
11127;SDS011;5618;51.028;5.234;2022-08-14T07:53:22;2.67;;;2.38;;
11127;SDS011;5618;51.028;5.234;2022-08-14T07:55:48;2.90;;;2.70;;
11127;SDS011;5618;51.028;5.234;2022-08-14T07:58:14;3.00;;;2.42;;
11127;SDS011;5618;51.028;5.234;2022-08-14T08:00:41;2.38;;;2.28;;
11127;SDS011;5618;51.028;5.234;2022-08-14T08:03:08;2.45;;;2.08;;
11127;SDS011;5618;51.028;5.234;2022-08-14T08:05:35;2.65;;;2.45;;
11127;SDS011;5618;51.028;5.234;2022-08-14T08:08:02;3.30;;;1.95;;
11127;SDS011;5618;51.028;5.234;2022-08-14T08:10:29;2.70;;;2.50;;
11127;SDS011;5618;51.028;5.234;2022-08-14T08:13:04;2.40;;;2.22;;
11127;SDS011;5618;51.028;5.234;2022-08-14T08:15:42;3.28;;;2.45;;
11127;SDS011;5618;51.028;5.234;2022-08-14T08:18:10;2.58;;;2.38;;
11127;SDS011;5618;51.028;5.234;2022-08-14T08:20:43;2.42;;;2.22;;
11127;SDS011;5618;51.028;5.234;2022-08-14T08:23:10;2.75;;;2.55;;
11127;SDS011;5618;51.028;5.234;2022-08-14T08:25:38;3.30;;;2.40;;
11127;SDS011;5618;51.028;5.234;2022-08-14T08:30:39;3.42;;;2.38;;
11127;SDS011;5618;51.028;5.234;2022-08-14T08:33:08;2.15;;;2.03;;
11127;SDS011;5618;51.028;5.234;2022-08-14T08:35:35;3.60;;;2.60;;
11127;SDS011;5618;51.028;5.234;2022-08-14T08:38:13;2.60;;;2.40;;
11127;SDS011;5618;51.028;5.234;2022-08-14T08:40:45;2.25;;;2.15;;
11127;SDS011;5618;51.028;5.234;2022-08-14T08:48:25;2.50;;;2.30;;
11127;SDS011;5618;51.028;5.234;2022-08-14T08:50:59;2.00;;;1.80;;
11127;SDS011;5618;51.028;5.234;2022-08-14T08:53:30;5.00;;;2.17;;
11127;SDS011;5618;51.028;5.234;2022-08-14T08:55:58;2.78;;;2.38;;
11127;SDS011;5618;51.028;5.234;2022-08-14T08:58:24;2.55;;;2.35;;
11127;SDS011;5618;51.028;5.234;2022-08-14T09:00:51;3.03;;;2.35;;
11127;SDS011;5618;51.028;5.234;2022-08-14T09:03:24;2.58;;;2.38;;
11127;SDS011;5618;51.028;5.234;2022-08-14T09:05:52;2.88;;;2.50;;
11127;SDS011;5618;51.028;5.234;2022-08-14T09:08:37;2.30;;;2.20;;
11127;SDS011;5618;51.028;5.234;2022-08-14T09:11:06;2.53;;;2.20;;
11127;SDS011;5618;51.028;5.234;2022-08-14T09:13:36;2.25;;;2.05;;
11127;SDS011;5618;51.028;5.234;2022-08-14T09:16:02;2.38;;;2.17;;
11127;SDS011;5618;51.028;5.234;2022-08-14T09:18:28;2.30;;;2.20;;
11127;SDS011;5618;51.028;5.234;2022-08-14T09:20:55;2.10;;;2.00;;
11127;SDS011;5618;51.028;5.234;2022-08-14T09:23:21;2.67;;;1.90;;
11127;SDS011;5618;51.028;5.234;2022-08-14T09:25:47;2.17;;;2.00;;
11127;SDS011;5618;51.028;5.234;2022-08-14T09:28:15;2.53;;;1.90;;
11127;SDS011;5618;51.028;5.234;2022-08-14T09:30:46;1.83;;;1.73;;
11127;SDS011;5618;51.028;5.234;2022-08-14T09:38:53;1.98;;;1.88;;
11127;SDS011;5618;51.028;5.234;2022-08-14T09:41:32;2.00;;;1.90;;
11127;SDS011;5618;51.028;5.234;2022-08-14T09:47:05;1.88;;;1.77;;
11127;SDS011;5618;51.028;5.234;2022-08-14T09:49:32;1.80;;;1.67;;
11127;SDS011;5618;51.028;5.234;2022-08-14T09:52:06;1.65;;;1.55;;
11127;SDS011;5618;51.028;5.234;2022-08-14T09:54:44;2.08;;;1.63;;
11127;SDS011;5618;51.028;5.234;2022-08-14T09:57:17;1.73;;;1.63;;
11127;SDS011;5618;51.028;5.234;2022-08-14T09:59:49;4.43;;;1.73;;
11127;SDS011;5618;51.028;5.234;2022-08-14T10:02:23;2.25;;;1.65;;
11127;SDS011;5618;51.028;5.234;2022-08-14T10:07:47;1.50;;;1.40;;
11127;SDS011;5618;51.028;5.234;2022-08-14T10:10:29;1.63;;;1.52;;
11127;SDS011;5618;51.028;5.234;2022-08-14T10:12:56;1.70;;;1.60;;
11127;SDS011;5618;51.028;5.234;2022-08-14T10:15:23;1.67;;;1.58;;
11127;SDS011;5618;51.028;5.234;2022-08-14T10:18:06;1.60;;;1.40;;
11127;SDS011;5618;51.028;5.234;2022-08-14T10:20:38;1.70;;;1.60;;
11127;SDS011;5618;51.028;5.234;2022-08-14T10:23:08;1.70;;;1.60;;
11127;SDS011;5618;51.028;5.234;2022-08-14T10:25:38;2.15;;;1.50;;
11127;SDS011;5618;51.028;5.234;2022-08-14T10:28:08;1.65;;;1.50;;
11127;SDS011;5618;51.028;5.234;2022-08-14T10:30:39;1.48;;;1.38;;
11127;SDS011;5618;51.028;5.234;2022-08-14T10:33:06;1.45;;;1.38;;
11127;SDS011;5618;51.028;5.234;2022-08-14T10:35:42;2.35;;;1.70;;
11127;SDS011;5618;51.028;5.234;2022-08-14T10:38:09;1.90;;;1.80;;
11127;SDS011;5618;51.028;5.234;2022-08-14T10:40:34;1.70;;;1.60;;
11127;SDS011;5618;51.028;5.234;2022-08-14T10:43:01;1.50;;;1.40;;
11127;SDS011;5618;51.028;5.234;2022-08-14T10:45:31;1.25;;;1.25;;
11127;SDS011;5618;51.028;5.234;2022-08-14T10:47:58;1.90;;;1.40;;
11127;SDS011;5618;51.028;5.234;2022-08-14T10:50:33;1.65;;;1.55;;
11127;SDS011;5618;51.028;5.234;2022-08-14T10:53:02;1.50;;;1.35;;
11127;SDS011;5618;51.028;5.234;2022-08-14T10:55:30;1.80;;;1.67;;
11127;SDS011;5618;51.028;5.234;2022-08-14T10:57:59;1.60;;;1.50;;
11127;SDS011;5618;51.028;5.234;2022-08-14T11:00:26;1.48;;;1.38;;
11127;SDS011;5618;51.028;5.234;2022-08-14T11:02:57;1.60;;;1.50;;
11127;SDS011;5618;51.028;5.234;2022-08-14T11:05:25;1.38;;;1.38;;
11127;SDS011;5618;51.028;5.234;2022-08-14T11:08:03;1.42;;;1.33;;
11127;SDS011;5618;51.028;5.234;2022-08-14T11:10:39;1.60;;;1.50;;
11127;SDS011;5618;51.028;5.234;2022-08-14T11:13:20;1.52;;;1.27;;
11127;SDS011;5618;51.028;5.234;2022-08-14T11:15:48;1.60;;;1.48;;
11127;SDS011;5618;51.028;5.234;2022-08-14T11:18:15;1.60;;;1.50;;
11127;SDS011;5618;51.028;5.234;2022-08-14T11:20:44;2.58;;;1.67;;
11127;SDS011;5618;51.028;5.234;2022-08-14T11:23:13;1.70;;;1.60;;
11127;SDS011;5618;51.028;5.234;2022-08-14T11:25:43;2.08;;;1.63;;
11127;SDS011;5618;51.028;5.234;2022-08-14T11:28:12;1.67;;;1.55;;
11127;SDS011;5618;51.028;5.234;2022-08-14T11:30:39;3.50;;;1.73;;
11127;SDS011;5618;51.028;5.234;2022-08-14T11:33:07;1.80;;;1.58;;
11127;SDS011;5618;51.028;5.234;2022-08-14T11:35:32;5.25;;;1.80;;
11127;SDS011;5618;51.028;5.234;2022-08-14T11:38:03;1.60;;;1.50;;
11127;SDS011;5618;51.028;5.234;2022-08-14T11:40:31;1.60;;;1.50;;
11127;SDS011;5618;51.028;5.234;2022-08-14T11:42:59;1.70;;;1.60;;
11127;SDS011;5618;51.028;5.234;2022-08-14T11:45:27;1.50;;;1.40;;
11127;SDS011;5618;51.028;5.234;2022-08-14T11:48:01;1.80;;;1.27;;
11127;SDS011;5618;51.028;5.234;2022-08-14T11:50:46;1.20;;;1.17;;
11127;SDS011;5618;51.028;5.234;2022-08-14T11:55:54;5.13;;;1.38;;
11127;SDS011;5618;51.028;5.234;2022-08-14T11:58:23;1.70;;;1.60;;
11127;SDS011;5618;51.028;5.234;2022-08-14T12:00:56;3.08;;;1.55;;
11127;SDS011;5618;51.028;5.234;2022-08-14T12:03:38;1.90;;;1.80;;
11127;SDS011;5618;51.028;5.234;2022-08-14T12:06:08;1.50;;;1.40;;
11127;SDS011;5618;51.028;5.234;2022-08-14T12:08:35;1.42;;;1.33;;
11127;SDS011;5618;51.028;5.234;2022-08-14T12:11:03;3.53;;;1.55;;
11127;SDS011;5618;51.028;5.234;2022-08-14T12:13:30;1.60;;;1.50;;
11127;SDS011;5618;51.028;5.234;2022-08-14T12:16:02;1.45;;;1.35;;
11127;SDS011;5618;51.028;5.234;2022-08-14T12:18:38;2.00;;;1.00;;
11127;SDS011;5618;51.028;5.234;2022-08-14T12:21:16;1.77;;;1.40;;
11127;SDS011;5618;51.028;5.234;2022-08-14T12:23:47;1.83;;;1.73;;
11127;SDS011;5618;51.028;5.234;2022-08-14T12:26:29;2.42;;;1.60;;
11127;SDS011;5618;51.028;5.234;2022-08-14T12:29:12;1.50;;;1.40;;
11127;SDS011;5618;51.028;5.234;2022-08-14T12:31:40;1.73;;;1.63;;
11127;SDS011;5618;51.028;5.234;2022-08-14T12:34:07;3.08;;;1.40;;
11127;SDS011;5618;51.028;5.234;2022-08-14T12:36:35;1.50;;;1.40;;
11127;SDS011;5618;51.028;5.234;2022-08-14T12:39:03;1.75;;;1.42;;
11127;SDS011;5618;51.028;5.234;2022-08-14T12:41:47;1.42;;;1.40;;
11127;SDS011;5618;51.028;5.234;2022-08-14T12:44:16;2.05;;;1.70;;
11127;SDS011;5618;51.028;5.234;2022-08-14T12:47:00;1.45;;;1.35;;
11127;SDS011;5618;51.028;5.234;2022-08-14T12:49:27;2.13;;;1.65;;
11127;SDS011;5618;51.028;5.234;2022-08-14T12:51:59;1.67;;;1.58;;
11127;SDS011;5618;51.028;5.234;2022-08-14T12:54:27;1.40;;;1.30;;
11127;SDS011;5618;51.028;5.234;2022-08-14T12:57:03;1.50;;;1.40;;
11127;SDS011;5618;51.028;5.234;2022-08-14T12:59:35;2.47;;;1.48;;
11127;SDS011;5618;51.028;5.234;2022-08-14T13:02:01;3.25;;;1.63;;
11127;SDS011;5618;51.028;5.234;2022-08-14T13:04:27;1.60;;;1.50;;
11127;SDS011;5618;51.028;5.234;2022-08-14T13:07:04;2.25;;;1.38;;
11127;SDS011;5618;51.028;5.234;2022-08-14T13:09:32;1.73;;;1.63;;
11127;SDS011;5618;51.028;5.234;2022-08-14T13:12:00;2.78;;;2.58;;
11127;SDS011;5618;51.028;5.234;2022-08-14T13:14:29;1.60;;;1.50;;
11127;SDS011;5618;51.028;5.234;2022-08-14T13:16:57;2.05;;;1.65;;
11127;SDS011;5618;51.028;5.234;2022-08-14T13:19:27;1.75;;;1.65;;
11127;SDS011;5618;51.028;5.234;2022-08-14T13:21:54;1.67;;;1.58;;
11127;SDS011;5618;51.028;5.234;2022-08-14T13:24:21;3.17;;;2.10;;
11127;SDS011;5618;51.028;5.234;2022-08-14T13:26:48;1.67;;;1.58;;
11127;SDS011;5618;51.028;5.234;2022-08-14T13:29:22;1.70;;;1.60;;
11127;SDS011;5618;51.028;5.234;2022-08-14T13:31:50;1.77;;;1.67;;
11127;SDS011;5618;51.028;5.234;2022-08-14T13:34:21;1.98;;;1.88;;
11127;SDS011;5618;51.028;5.234;2022-08-14T13:36:48;1.75;;;1.65;;
11127;SDS011;5618;51.028;5.234;2022-08-14T13:39:15;1.77;;;1.67;;
11127;SDS011;5618;51.028;5.234;2022-08-14T13:41:42;1.55;;;1.45;;
11127;SDS011;5618;51.028;5.234;2022-08-14T13:44:09;1.83;;;1.73;;
11127;SDS011;5618;51.028;5.234;2022-08-14T13:46:36;2.88;;;1.80;;
11127;SDS011;5618;51.028;5.234;2022-08-14T13:49:02;2.70;;;1.90;;
11127;SDS011;5618;51.028;5.234;2022-08-14T13:51:34;2.83;;;1.75;;
11127;SDS011;5618;51.028;5.234;2022-08-14T13:54:04;6.03;;;1.60;;
11127;SDS011;5618;51.028;5.234;2022-08-14T13:56:30;1.88;;;1.77;;
11127;SDS011;5618;51.028;5.234;2022-08-14T13:58:58;2.05;;;1.92;;
11127;SDS011;5618;51.028;5.234;2022-08-14T14:01:25;1.58;;;1.45;;
11127;SDS011;5618;51.028;5.234;2022-08-14T14:03:51;1.70;;;1.60;;
11127;SDS011;5618;51.028;5.234;2022-08-14T14:06:19;1.95;;;1.45;;
11127;SDS011;5618;51.028;5.234;2022-08-14T14:08:48;2.00;;;1.90;;
11127;SDS011;5618;51.028;5.234;2022-08-14T14:11:21;1.70;;;1.60;;
11127;SDS011;5618;51.028;5.234;2022-08-14T14:13:52;1.88;;;1.77;;
11127;SDS011;5618;51.028;5.234;2022-08-14T14:16:19;2.97;;;1.90;;
11127;SDS011;5618;51.028;5.234;2022-08-14T14:18:50;1.80;;;1.70;;
11127;SDS011;5618;51.028;5.234;2022-08-14T14:21:20;1.67;;;1.55;;
11127;SDS011;5618;51.028;5.234;2022-08-14T14:23:48;1.77;;;1.67;;
11127;SDS011;5618;51.028;5.234;2022-08-14T14:26:14;1.60;;;1.50;;
11127;SDS011;5618;51.028;5.234;2022-08-14T14:28:41;2.45;;;1.55;;
11127;SDS011;5618;51.028;5.234;2022-08-14T14:31:08;1.95;;;1.85;;
11127;SDS011;5618;51.028;5.234;2022-08-14T14:33:35;1.95;;;1.67;;
11127;SDS011;5618;51.028;5.234;2022-08-14T14:36:10;1.60;;;1.50;;
11127;SDS011;5618;51.028;5.234;2022-08-14T14:38:37;1.80;;;1.70;;
11127;SDS011;5618;51.028;5.234;2022-08-14T14:41:08;1.83;;;1.73;;
11127;SDS011;5618;51.028;5.234;2022-08-14T14:43:38;1.70;;;1.60;;
11127;SDS011;5618;51.028;5.234;2022-08-14T14:46:09;1.65;;;1.55;;
11127;SDS011;5618;51.028;5.234;2022-08-14T14:48:38;2.88;;;1.45;;
11127;SDS011;5618;51.028;5.234;2022-08-14T14:51:08;1.40;;;1.40;;
11127;SDS011;5618;51.028;5.234;2022-08-14T14:53:36;1.70;;;1.60;;
11127;SDS011;5618;51.028;5.234;2022-08-14T14:56:04;1.80;;;1.70;;
11127;SDS011;5618;51.028;5.234;2022-08-14T14:58:29;1.63;;;1.52;;
11127;SDS011;5618;51.028;5.234;2022-08-14T15:00:56;1.30;;;1.30;;
11127;SDS011;5618;51.028;5.234;2022-08-14T15:03:24;1.70;;;1.60;;
11127;SDS011;5618;51.028;5.234;2022-08-14T15:05:50;1.95;;;1.73;;
11127;SDS011;5618;51.028;5.234;2022-08-14T15:08:17;3.00;;;1.98;;
11127;SDS011;5618;51.028;5.234;2022-08-14T15:10:43;1.70;;;1.60;;
11127;SDS011;5618;51.028;5.234;2022-08-14T15:13:10;1.70;;;1.60;;
11127;SDS011;5618;51.028;5.234;2022-08-14T15:15:35;1.60;;;1.50;;
11127;SDS011;5618;51.028;5.234;2022-08-14T15:18:01;3.03;;;2.03;;
11127;SDS011;5618;51.028;5.234;2022-08-14T15:20:31;2.20;;;2.00;;
11127;SDS011;5618;51.028;5.234;2022-08-14T15:22:57;1.60;;;1.50;;
11127;SDS011;5618;51.028;5.234;2022-08-14T15:25:27;1.80;;;1.70;;
11127;SDS011;5618;51.028;5.234;2022-08-14T15:27:59;1.70;;;1.60;;
11127;SDS011;5618;51.028;5.234;2022-08-14T15:30:26;1.50;;;1.40;;